Flight Track Log - Related Links

Times and Time Zones

All times are in EDT time to prevent confusion due to time zone crossing. See the JZA7996 flight status page for this flight to view local times or setup timezone preferences in your user account.

Time Position Orientation Groundspeed Altitude Reporting Facility
EDT Latitude Longitude Course Direction KTS MPH feet Rate Location/Type
Sun 06:00:22 PM 32.8833 -97.0333 357° North 171 197 1,300  Level Dallas / Fort Worth TRACON
Sun 06:01:22 PM 32.8333 -97.0167 164° South 208 239 3,100 2,050 Climbing Dallas / Fort Worth TRACON
Sun 06:02:22 PM 32.7833 -96.9667 140° Southeast 248 285 5,400 2,333 Climbing Dallas / Fort Worth TRACON
Sun 06:03:28 PM 32.7667 -96.8833 103° East 276 318 8,000 2,106 Climbing Dallas / Fort Worth TRACON
Sun 06:04:00 PM 33.1421 -96.8050 357° North  Level FlightAware Approximate
Sun 06:05:00 PM 33.2719 -96.8137 357° North  Level FlightAware Approximate
Sun 06:05:30 PM 32.9028 -96.8097 24° Northeast 307 353 12,000  Level Fort Worth Center
Sun 06:06:30 PM 33.0114 -96.8114 359° North 331 381 13,600 1,550 Climbing Fort Worth Center
Sun 06:07:30 PM 33.1075 -96.8158 358° North 370 426 15,100 1,650 Climbing Fort Worth Center
Sun 06:08:30 PM 33.2264 -96.8175 359° North 385 443 16,900 1,750 Climbing Fort Worth Center
Sun 06:09:30 PM 33.3289 -96.8192 359° North 391 450 18,600 1,700 Climbing Fort Worth Center
Sun 06:10:30 PM 33.4519 -96.8183 360° North 401 461 20,300 1,450 Climbing Fort Worth Center
Sun 06:11:30 PM 33.5478 -96.7606 27° Northeast 406 467 21,500 1,200 Climbing Fort Worth Center
Sun 06:12:30 PM 33.6683 -96.6872 27° Northeast 432 497 22,700 1,200 Climbing Fort Worth Center
Sun 06:13:30 PM 33.7703 -96.6214 28° Northeast 446 513 23,900 1,000 Climbing Fort Worth Center
Sun 06:14:30 PM 33.8803 -96.5478 29° Northeast 457 526 24,700 1,000 Climbing Fort Worth Center
Sun 06:15:30 PM 33.9944 -96.4767 27° Northeast 457 526 25,900 1,150 Climbing Fort Worth Center
Sun 06:16:30 PM 34.1003 -96.4003 31° Northeast 448 516 27,000 1,250 Climbing Fort Worth Center
Sun 06:17:30 PM 34.2081 -96.3111 34° Northeast 448 516 28,400 1,300 Climbing Fort Worth Center
Sun 06:18:30 PM 34.3139 -96.2242 34° Northeast 453 521 29,600 1,150 Climbing Fort Worth Center
Sun 06:19:30 PM 34.4214 -96.1347 34° Northeast 459 528 30,700 1,000 Climbing Fort Worth Center
Sun 06:20:30 PM 34.5247 -96.0475 35° Northeast 459 528 31,600 1,000 Climbing Fort Worth Center
Sun 06:21:30 PM 34.6344 -95.9572 34° Northeast 459 528 32,700 850 Climbing Fort Worth Center
Sun 06:22:30 PM 34.7419 -95.8722 33° Northeast 459 528 33,300 700 Climbing Fort Worth Center
Sun 06:23:30 PM 34.8469 -95.7792 36° Northeast 459 528 34,100 950 Climbing Fort Worth Center
Sun 06:24:30 PM 34.9458 -95.6708 42° Northeast 471 542 35,200 888 Climbing Fort Worth Center
Sun 06:26:46 PM 35.1547 -95.4261 44° Northeast 473 544 37,000 551 Climbing Memphis Center
Sun 06:27:46 PM 35.2467 -95.3175 44° Northeast 467 537 37,000  Level Memphis Center
Sun 06:28:46 PM 35.3342 -95.2156 44° Northeast 472 543 37,000  Level Memphis Center
Sun 06:29:46 PM 35.4497 -95.0822 43° Northeast 477 549 37,000  Level Memphis Center
Sun 06:30:46 PM 35.5439 -94.9678 45° Northeast 477 549 37,000  Level Memphis Center
Sun 06:31:46 PM 35.6375 -94.8578 44° Northeast 472 543 37,000  Level Memphis Center
Sun 06:32:46 PM 35.7311 -94.7453 44° Northeast 472 543 37,000  Level Memphis Center
Sun 06:33:46 PM 35.8269 -94.6328 44° Northeast 472 543 37,000  Level Memphis Center
Sun 06:34:46 PM 35.9183 -94.5194 45° Northeast 472 543 37,000  Level Memphis Center
Sun 06:35:46 PM 36.0136 -94.4064 44° Northeast 472 543 37,000  Level Memphis Center
Sun 06:36:46 PM 36.1069 -94.2928 45° Northeast 472 543 37,000  Level Memphis Center
Sun 06:38:41 PM 36.2667 -94.0958 45° Northeast 473 544 37,000  Level Kansas City Center
Sun 06:39:45 PM 36.3686 -93.9603 47° Northeast 479 551 37,000  Level Kansas City Center
Sun 06:40:46 PM 36.4611 -93.8386 47° Northeast 483 556 37,000  Level Kansas City Center
Sun 06:41:47 PM 36.5606 -93.7061 47° Northeast 482 555 37,000  Level Kansas City Center
Sun 06:42:51 PM 36.6536 -93.5819 47° Northeast 486 559 37,000  Level Kansas City Center
Sun 06:43:51 PM 36.7453 -93.4594 47° Northeast 484 557 37,000  Level Kansas City Center
Sun 06:44:52 PM 36.8372 -93.3383 46° Northeast 481 554 37,000  Level Kansas City Center
Sun 06:45:56 PM 36.9433 -93.1936 47° Northeast 481 554 37,000  Level Kansas City Center
Sun 06:46:57 PM 37.0344 -93.0728 47° Northeast 479 551 37,000  Level Kansas City Center
Sun 06:48:00 PM 37.1242 -92.9486 48° Northeast 480 552 37,000  Level Kansas City Center
Sun 06:49:01 PM 37.2147 -92.8253 47° Northeast 480 552 37,000  Level Kansas City Center
Sun 06:50:04 PM 37.3050 -92.7006 48° Northeast 481 554 37,000  Level Kansas City Center
Sun 06:51:05 PM 37.4128 -92.5481 48° Northeast 485 558 37,000  Level Kansas City Center
Sun 06:52:09 PM 37.5028 -92.4231 48° Northeast 484 557 37,000  Level Kansas City Center
Sun 06:53:10 PM 37.5922 -92.2981 48° Northeast 482 555 37,000  Level Kansas City Center
Sun 06:54:13 PM 37.6789 -92.1772 48° Northeast 486 559 37,000  Level Kansas City Center
Sun 06:55:13 PM 37.7714 -92.0475 48° Northeast 486 559 37,000  Level Kansas City Center
Sun 06:56:16 PM 37.8783 -91.8978 48° Northeast 484 557 37,000  Level Kansas City Center
Sun 06:57:19 PM 37.9678 -91.7714 48° Northeast 484 557 37,000  Level Kansas City Center
Sun 06:58:21 PM 38.0567 -91.6467 48° Northeast 481 554 37,000  Level Kansas City Center
Sun 06:59:21 PM 38.1456 -91.5194 48° Northeast 482 555 37,000  Level Kansas City Center
Sun 07:00:25 PM 38.2333 -91.3931 48° Northeast 479 551 37,000  Level Kansas City Center
Sun 07:01:26 PM 38.3214 -91.2664 48° Northeast 482 555 37,000  Level Kansas City Center
Sun 07:02:27 PM 38.4283 -91.1144 48° Northeast 481 554 37,000  Level Kansas City Center
Sun 07:03:31 PM 38.5156 -90.9864 49° Northeast 480 552 37,000  Level Kansas City Center
Sun 07:04:32 PM 38.6033 -90.8597 48° Northeast 478 550 37,000  Level Kansas City Center
Sun 07:05:33 PM 38.6914 -90.7314 49° Northeast 477 549 37,000  Level Kansas City Center
Sun 07:06:37 PM 38.7797 -90.6031 49° Northeast 476 548 37,000  Level Kansas City Center
Sun 07:07:37 PM 38.8672 -90.4728 49° Northeast 477 549 37,000  Level Kansas City Center
Sun 07:08:41 PM 38.9439 -90.3242 56° Northeast 478 550 37,000  Level Kansas City Center
Sun 07:09:42 PM 39.0181 -90.1800 56° Northeast 481 554 37,000  Level Kansas City Center
Sun 07:10:46 PM 39.0919 -90.0375 56° Northeast 480 552 37,000  Level Kansas City Center
Sun 07:11:45 PM 39.1792 -89.8672 57° Northeast 480 552 37,000  Level Kansas City Center
Sun 07:12:48 PM 39.2542 -89.7217 56° Northeast 481 554 37,000  Level Kansas City Center
Sun 07:13:50 PM 39.3272 -89.5764 57° Northeast 481 554 37,000  Level Kansas City Center
Sun 07:14:52 PM 39.4014 -89.4344 56° Northeast 480 552 37,000  Level Kansas City Center
Sun 07:15:53 PM 39.4731 -89.2892 57° Northeast 480 552 37,000  Level Kansas City Center
Sun 07:16:55 PM 39.5519 -89.1331 57° Northeast 481 554 37,000  Level Kansas City Center
Sun 07:18:36 PM 39.6694 -88.9014 57° Northeast 482 555 37,000  Level Kansas City Center
Sun 07:19:37 PM 39.7408 -88.7558 57° Northeast 482 555 37,000  Level Kansas City Center
Sun 07:20:38 PM 39.8278 -88.5806 57° Northeast 482 555 37,000  Level Kansas City Center
Sun 07:21:42 PM 39.9008 -88.4331 57° Northeast 484 557 37,000  Level Kansas City Center
Sun 07:22:14 PM 39.9431 -88.3458 58° Northeast 487 560 37,000  Level Chicago Center
Sun 07:23:16 PM 40.0156 -88.1994 57° Northeast 484 557 37,000  Level Chicago Center
Sun 07:24:18 PM 40.0856 -88.0528 58° Northeast 481 554 37,000  Level Chicago Center
Sun 07:25:20 PM 40.1578 -87.9039 58° Northeast 483 556 37,000  Level Chicago Center
Sun 07:25:42 PM 40.1850 -87.8475 58° Northeast 480 552 37,000  Level Indianapolis Center
Sun 07:26:44 PM 40.2567 -87.6981 58° Northeast 480 552 37,000  Level Indianapolis Center
Sun 07:27:24 PM 40.3022 -87.6047 57° Northeast 482 555 37,000  Level Chicago Center
Sun 07:28:26 PM 40.3861 -87.4283 58° Northeast 480 552 37,000  Level Chicago Center
Sun 07:29:28 PM 40.4575 -87.2819 57° Northeast 482 555 37,000  Level Chicago Center
Sun 07:30:30 PM 40.5272 -87.1336 58° Northeast 481 554 37,000  Level Chicago Center
Sun 07:31:32 PM 40.5961 -86.9839 59° Northeast 483 556 37,000  Level Chicago Center
Sun 07:32:34 PM 40.6758 -86.8000 60° Northeast 486 559 37,000  Level Chicago Center
Sun 07:33:36 PM 40.7308 -86.6714 61° Northeast 480 552 37,000  Level Chicago Center
Sun 07:34:38 PM 40.8103 -86.4856 60° Northeast 485 558 37,000  Level Chicago Center
Sun 07:35:40 PM 40.8772 -86.3300 60° Northeast 487 560 37,000  Level Chicago Center
Sun 07:36:42 PM 40.9447 -86.1747 60° Northeast 489 563 37,000  Level Chicago Center
Sun 07:37:44 PM 41.0108 -86.0169 61° Northeast 491 565 37,000  Level Chicago Center
Sun 07:38:46 PM 41.0764 -85.8611 61° Northeast 489 563 37,000  Level Chicago Center
Sun 07:39:48 PM 41.1431 -85.7042 61° Northeast 491 565 37,000  Level Chicago Center
Sun 07:40:50 PM 41.2217 -85.5139 61° Northeast 494 568 37,000  Level Chicago Center
Sun 07:41:52 PM 41.2878 -85.3567 61° Northeast 493 567 37,000  Level Chicago Center
Sun 07:42:54 PM 41.3533 -85.2003 61° Northeast 493 567 37,000  Level Chicago Center
Sun 07:43:56 PM 41.4169 -85.0403 62° Northeast 495 570 37,000  Level Chicago Center
Sun 07:44:58 PM 41.4953 -84.8497 61° Northeast 495 570 37,000  Level Chicago Center
Sun 07:46:00 PM 41.5603 -84.6886 62° Northeast 497 572 37,000  Level Chicago Center
Sun 07:46:40 PM 41.6003 -84.5875 62° Northeast 487 560 37,000  Level Cleveland Center
Sun 07:47:40 PM 41.6661 -84.4278 61° Northeast 487 560 37,000  Level Cleveland Center
Sun 07:48:40 PM 41.7325 -84.2508 63° Northeast 487 560 37,000  Level Cleveland Center
Sun 07:49:40 PM 41.8000 -84.0875 61° Northeast 482 555 37,000  Level Cleveland Center
Sun 07:50:40 PM 41.8656 -83.9181 63° Northeast 488 562 37,000  Level Cleveland Center
Sun 07:51:40 PM 41.9308 -83.7539 62° Northeast 493 567 37,000  Level Cleveland Center
Sun 07:52:40 PM 41.9956 -83.5894 62° Northeast 493 567 37,000  Level Cleveland Center
Sun 07:53:40 PM 42.0542 -83.4189 65° Northeast 498 573 37,000 -550 Level Cleveland Center
Sun 07:54:40 PM 42.0794 -83.2325 80° East 498 573 35,900 -1,700 Descending Cleveland Center
Sun 07:55:40 PM 42.0831 -83.0675 88° East 498 573 33,600 -2,350 Descending Cleveland Center
Sun 07:56:40 PM 42.0908 -82.8944 86° East 484 557 31,200 -1,950 Descending Cleveland Center
Sun 07:57:40 PM 42.1544 -82.7428 60° Northeast 459 528 29,700 -1,100 Descending Cleveland Center
Sun 07:58:40 PM 42.2342 -82.5994 53° Northeast 456 525 29,000 -350 Descending Cleveland Center
Sun 07:59:40 PM 42.3158 -82.4561 52° Northeast 463 533 29,000  Level Cleveland Center
Sun 08:00:40 PM 42.3950 -82.3094 54° Northeast 479 551 29,000  Level Cleveland Center
Sun 08:01:40 PM 42.4786 -82.1653 52° Northeast 479 551 29,000  Level Cleveland Center
Sun 08:02:40 PM 42.5575 -82.0208 53° Northeast 484 557 29,000  Level Cleveland Center
Sun 08:03:40 PM 42.6406 -81.8703 53° Northeast 484 557 29,000  Level Cleveland Center
Sun 08:04:40 PM 42.7256 -81.7222 52° Northeast 492 566 29,000  Level Cleveland Center
Sun 08:05:40 PM 42.8061 -81.5708 54° Northeast 492 566 29,000  Level Cleveland Center
Sun 08:06:40 PM 42.8969 -81.4136 52° Northeast 497 572 29,000 -1,163 Level Cleveland Center
Sun 08:07:49 PM 42.9833 -81.2333 57° Northeast 500 575 26,500 -2,233 Descending Toronto Center
Sun 08:08:49 PM 43.0500 -81.0667 61° Northeast 470 541 24,200 -2,600 Descending Toronto Center
Sun 08:09:49 PM 43.1333 -80.9333 49° Northeast 450 518 21,300 -2,900 Descending Toronto Center
Sun 08:10:49 PM 43.2000 -80.8167 52° Northeast 430 495 18,400 -2,650 Descending Toronto Center
Sun 08:11:49 PM 43.2833 -80.6833 49° Northeast 410 472 16,000 -2,600 Descending Toronto Center
Sun 08:12:49 PM 43.3333 -80.5667 59° Northeast 390 449 13,200 -2,200 Descending Toronto Center
Sun 08:13:49 PM 43.4000 -80.4667 47° Northeast 360 414 11,600 -1,550 Descending Toronto Center
Sun 08:14:49 PM 43.4500 -80.3667 55° Northeast 320 368 10,100 -1,650 Descending Toronto Center
Sun 08:15:49 PM 43.4667 -80.2500 79° East 300 345 8,300 -1,550 Descending Toronto Center
Sun 08:16:49 PM 43.4833 -80.1667 75° East 280 322 7,000 -900 Descending Toronto Center
Sun 08:17:49 PM 43.4833 -80.0667 90° East 240 276 6,500 -950 Descending Toronto Center
Sun 08:18:49 PM 43.4833 -79.9833 90° East 240 276 5,100 -1,200 Descending Toronto Center
Sun 08:19:49 PM 43.4833 -79.8833 90° East 210 242 4,100 -1,000 Descending Toronto Center
Sun 08:20:49 PM 43.5000 -79.8167 71° East 180 207 3,100 -550 Descending Toronto Center
Sun 08:21:49 PM 43.5333 -79.7667 47° Northeast 170 196 3,000 -50 Descending Toronto Center
Sun 08:22:49 PM 43.5667 -79.7167 47° Northeast 170 196 3,000 -350 Level Toronto Center
Sun 08:23:49 PM 43.5833 -79.6833 55° Northeast 170 196 2,300 -700 Descending Toronto Center

Login

Don't have an account? Register now (free) for customized features, flight alerts, and more!